createdAt,value
2022-07-29T04:01:21.288Z,70.32
2022-07-29T04:05:33.103Z,70.40
2022-07-29T04:09:45.130Z,69.92
2022-07-29T04:13:57.073Z,70.46
2022-07-29T04:18:09.184Z,70.56
2022-07-29T04:22:21.156Z,70.53
2022-07-29T04:26:35.824Z,70.81
2022-07-29T04:30:47.789Z,70.79
2022-07-29T04:34:59.802Z,70.67
2022-07-29T04:39:17.071Z,70.24
2022-07-29T04:43:36.648Z,70.43
2022-07-29T04:47:48.774Z,70.85
2022-07-29T04:52:00.569Z,70.85
2022-07-29T04:56:13.263Z,70.27
2022-07-29T05:00:29.191Z,70.33
2022-07-29T05:04:45.393Z,69.82
2022-07-29T05:08:57.130Z,69.48
2022-07-29T05:13:09.579Z,69.10
2022-07-29T05:17:21.763Z,68.43
2022-07-29T05:21:34.449Z,68.77
2022-07-29T05:25:47.720Z,68.04
2022-07-29T05:30:00.298Z,67.68
2022-07-29T05:34:14.278Z,67.61
2022-07-29T05:38:31.916Z,67.35
2022-07-29T05:42:57.129Z,66.76
2022-07-29T05:47:17.778Z,64.42
2022-07-29T05:51:37.369Z,53.22
2022-07-29T05:55:55.156Z,42.27
2022-07-29T06:00:08.205Z,40.33
2022-07-29T06:09:23.909Z,31.60
2022-07-29T06:13:35.958Z,29.39
2022-07-29T06:18:00.169Z,31.60
2022-07-29T06:22:12.778Z,31.32
2022-07-29T06:26:30.749Z,30.61
2022-07-29T06:30:49.830Z,30.28
2022-07-29T06:35:33.007Z,36.73
2022-07-29T06:39:35.272Z,41.22
2022-07-29T06:43:51.880Z,42.31
2022-07-29T06:48:05.902Z,40.35
2022-07-29T06:52:17.432Z,39.42
2022-07-29T06:56:28.979Z,39.60
2022-07-29T07:00:40.686Z,40.67
2022-07-29T07:04:52.495Z,42.37
2022-07-29T07:09:04.531Z,44.84
2022-07-29T07:13:18.067Z,45.80
2022-07-29T07:17:29.628Z,47.07
2022-07-29T07:21:41.420Z,47.86
2022-07-29T07:25:53.197Z,48.58
2022-07-29T07:30:06.744Z,48.05
2022-07-29T07:34:25.709Z,46.51
2022-07-29T07:38:41.306Z,45.42
2022-07-29T07:42:52.877Z,42.95
2022-07-29T07:47:12.212Z,42.18
2022-07-29T07:51:24.143Z,41.23
2022-07-29T07:56:08.181Z,39.73
2022-07-29T08:00:14.552Z,39.83
2022-07-29T08:04:28.742Z,39.09
2022-07-29T08:08:40.793Z,39.63
2022-07-29T08:12:52.327Z,40.07
2022-07-29T08:17:03.925Z,39.24
2022-07-29T08:21:16.495Z,39.81
2022-07-29T08:25:28.198Z,38.59
2022-07-29T08:29:40.456Z,39.04
2022-07-29T08:33:51.990Z,39.24
2022-07-29T08:38:04.340Z,38.67
2022-07-29T08:42:17.756Z,38.72
2022-07-29T08:46:29.331Z,39.16
2022-07-29T08:50:42.020Z,38.38
2022-07-29T08:54:58.117Z,38.51
2022-07-29T08:59:10.718Z,39.22
2022-07-29T09:03:28.285Z,38.99
2022-07-29T09:07:40.626Z,39.40
2022-07-29T09:11:54.346Z,37.85
2022-07-29T09:16:09.370Z,38.17
2022-07-29T09:20:25.631Z,37.98
2022-07-29T09:24:48.366Z,38.44
2022-07-29T09:29:00.636Z,37.93
2022-07-29T09:33:12.183Z,37.12
2022-07-29T09:37:30.050Z,36.61
2022-07-29T09:41:50.067Z,35.92
2022-07-29T09:46:12.805Z,36.49
2022-07-29T09:50:38.910Z,31.84
2022-07-29T09:54:51.156Z,31.85
2022-07-29T09:59:10.117Z,32.83
2022-07-29T10:03:23.048Z,33.26
2022-07-29T10:07:53.343Z,34.62
2022-07-29T10:12:07.935Z,35.54
2022-07-29T10:16:19.545Z,34.27
2022-07-29T10:20:31.547Z,34.48
2022-07-29T10:24:43.116Z,33.94
2022-07-29T10:28:54.627Z,33.85
2022-07-29T10:33:18.219Z,33.42
2022-07-29T10:37:57.776Z,33.45
2022-07-29T10:42:33.442Z,32.89
2022-07-29T10:46:47.048Z,34.53
2022-07-29T10:51:04.937Z,33.46
2022-07-29T10:55:42.989Z,33.58
2022-07-29T11:00:10.061Z,32.97
2022-07-29T11:04:47.056Z,32.68
2022-07-29T11:09:25.716Z,32.68
2022-07-29T11:13:55.982Z,30.26
2022-07-29T11:18:14.982Z,29.18
2022-07-29T11:22:45.927Z,28.88
2022-07-29T11:27:13.307Z,28.42
2022-07-29T11:31:44.392Z,28.98
2022-07-29T11:36:16.766Z,28.96
2022-07-29T11:40:28.700Z,29.89
2022-07-29T11:45:42.916Z,28.96
2022-07-29T11:49:45.665Z,29.51
2022-07-29T11:54:05.217Z,29.98
2022-07-29T11:58:25.183Z,28.48
2022-07-29T12:02:44.020Z,29.51
2022-07-29T12:07:00.689Z,29.01
2022-07-29T12:11:21.282Z,29.06
2022-07-29T12:15:46.361Z,29.58
2022-07-29T12:20:00.728Z,29.78
2022-07-29T12:24:14.771Z,30.16
2022-07-29T12:28:27.842Z,30.30
2022-07-29T12:32:47.973Z,30.13
2022-07-29T12:37:00.105Z,29.87
2022-07-29T12:41:11.901Z,30.19
2022-07-29T12:45:32.594Z,30.81
2022-07-29T12:49:45.473Z,30.85
2022-07-29T12:54:08.967Z,30.54
2022-07-29T12:58:36.151Z,29.23
2022-07-29T13:02:56.669Z,30.15
2022-07-29T13:07:10.434Z,29.20
2022-07-29T13:11:44.124Z,29.01
2022-07-29T13:16:08.811Z,29.20
2022-07-29T13:20:25.739Z,28.91
2022-07-29T13:24:55.527Z,28.40
2022-07-29T13:29:07.100Z,29.24
2022-07-29T13:33:18.638Z,28.80
2022-07-29T13:37:30.762Z,26.94
2022-07-29T13:41:42.547Z,27.09
2022-07-29T13:45:55.061Z,26.81
2022-07-29T13:50:08.744Z,26.93
2022-07-29T13:54:20.732Z,26.40
2022-07-29T13:58:34.135Z,26.30
2022-07-29T14:02:45.801Z,27.22
2022-07-29T14:06:57.369Z,27.65
2022-07-29T14:11:09.127Z,27.95
2022-07-29T14:15:21.409Z,26.90
2022-07-29T14:19:36.237Z,27.15
2022-07-29T14:23:48.610Z,26.99
2022-07-29T14:28:00.794Z,27.91
2022-07-29T14:32:12.473Z,28.26
2022-07-29T14:36:24.543Z,27.12
2022-07-29T14:40:36.097Z,26.78
2022-07-29T14:44:48.740Z,26.11
2022-07-29T14:49:00.983Z,25.57
2022-07-29T14:53:15.491Z,25.13
2022-07-29T14:57:27.051Z,24.87
2022-07-29T15:01:38.668Z,24.73
2022-07-29T15:05:50.304Z,24.99
2022-07-29T15:10:01.849Z,25.06
2022-07-29T15:14:13.935Z,25.65
2022-07-29T15:18:25.916Z,27.10
2022-07-29T15:22:39.010Z,27.56
2022-07-29T15:26:50.640Z,27.04
2022-07-29T15:31:02.264Z,26.70
2022-07-29T15:35:13.838Z,26.17
2022-07-29T15:39:26.599Z,25.60
2022-07-29T15:43:38.273Z,26.18
2022-07-29T15:47:49.798Z,26.66
2022-07-29T15:52:09.939Z,27.65
2022-07-29T15:56:24.499Z,28.37
2022-07-29T16:00:36.032Z,29.19
2022-07-29T16:04:47.957Z,29.43
2022-07-29T16:09:00.469Z,29.82
2022-07-29T16:13:12.154Z,30.45
2022-07-29T16:17:29.432Z,30.31
2022-07-29T16:21:41.032Z,30.98
2022-07-29T16:26:01.044Z,31.50
2022-07-29T16:30:13.747Z,31.09
2022-07-29T16:34:25.260Z,31.75
2022-07-29T16:38:38.116Z,31.01
2022-07-29T16:42:58.919Z,30.58
2022-07-29T16:47:10.456Z,30.97
2022-07-29T16:51:23.113Z,31.17
2022-07-29T16:55:34.642Z,29.78
2022-07-29T16:59:46.189Z,29.92
2022-07-29T17:04:06.461Z,30.57
2022-07-29T17:08:17.990Z,30.93
2022-07-29T17:12:29.605Z,31.06
2022-07-29T17:16:41.183Z,31.54
2022-07-29T17:20:52.767Z,31.30
2022-07-29T17:25:05.330Z,30.87
2022-07-29T17:29:17.203Z,31.52
2022-07-29T17:33:28.775Z,31.23
2022-07-29T17:37:40.353Z,31.21
2022-07-29T17:41:52.188Z,31.75
2022-07-29T17:46:03.907Z,32.52
2022-07-29T17:50:15.480Z,32.51
2022-07-29T17:54:27.302Z,32.62
2022-07-29T17:58:39.443Z,32.80
2022-07-29T18:02:51.098Z,33.27
2022-07-29T18:07:02.736Z,33.90
2022-07-29T18:11:15.072Z,34.31
2022-07-29T18:15:26.746Z,34.29
2022-07-29T18:19:38.278Z,35.32
2022-07-29T18:23:52.004Z,35.42
2022-07-29T18:28:04.525Z,35.33
2022-07-29T18:32:16.060Z,35.67
2022-07-29T18:36:27.599Z,35.78
2022-07-29T18:40:42.100Z,35.86
2022-07-29T18:44:54.895Z,36.25
2022-07-29T18:49:06.498Z,36.95
2022-07-29T18:53:18.142Z,37.41
2022-07-29T18:57:55.132Z,38.18
2022-07-29T19:02:02.224Z,38.52
2022-07-29T19:06:13.941Z,39.37
2022-07-29T19:10:25.470Z,39.83
2022-07-29T19:14:37.482Z,40.45
2022-07-29T19:18:49.060Z,40.48
2022-07-29T19:23:00.617Z,41.16
2022-07-29T19:27:12.200Z,41.16
2022-07-29T19:31:23.872Z,41.47
2022-07-29T19:35:35.816Z,41.87
2022-07-29T19:39:47.377Z,42.18
2022-07-29T19:43:58.986Z,42.29
2022-07-29T19:48:10.477Z,42.72
2022-07-29T19:52:22.026Z,42.77
2022-07-29T19:56:33.591Z,42.92
2022-07-29T20:00:45.893Z,43.80
2022-07-29T20:04:57.441Z,44.08
2022-07-29T20:09:16.754Z,44.65
2022-07-29T20:13:33.573Z,44.49
2022-07-29T20:17:45.244Z,45.12
2022-07-29T20:21:56.884Z,45.82
2022-07-29T20:26:09.743Z,46.33
2022-07-29T20:30:22.622Z,46.92
2022-07-29T20:34:34.337Z,47.34
2022-07-29T20:38:45.844Z,47.42
2022-07-29T20:42:57.456Z,48.04
2022-07-29T20:47:09.770Z,48.84
2022-07-29T20:51:21.760Z,49.47
2022-07-29T20:55:33.506Z,49.77
2022-07-29T20:59:45.850Z,49.78
2022-07-29T21:03:57.494Z,50.32
2022-07-29T21:08:09.099Z,50.66
2022-07-29T21:12:20.653Z,51.11
2022-07-29T21:16:33.729Z,51.53
2022-07-29T21:20:45.237Z,52.41
2022-07-29T21:24:56.934Z,52.49
2022-07-29T21:29:08.455Z,53.13
